Time;durP1;ratioP1;P1;durP2;ratioP2;P2;SDS_P1;SDS_P2;PMS_P1;PMS_P2;Temp;Humidity;BMP_temperature;BMP_pressure;BME280_temperature;BME280_humidity;BME280_pressure;Samples;Min_cycle;Max_cycle;Signal;HPM_P1;HPM_P2
2021/01/22 00:01:17;;;;;;;8.48;6.50;;;22.80;33.10;;;;;;4994340;28;20434;-56
2021/01/22 00:03:42;;;;;;;6.97;5.55;;;22.80;33.10;;;;;;4996138;28;20027;-52
2021/01/22 00:06:08;;;;;;;6.72;5.53;;;22.80;33.00;;;;;;4977194;28;20027;-53
2021/01/22 00:08:34;;;;;;;7.13;5.75;;;22.70;32.90;;;;;;4986141;28;20030;-53
2021/01/22 00:11:00;;;;;;;7.07;5.72;;;22.70;32.80;;;;;;4994702;28;20084;-49
2021/01/22 00:13:26;;;;;;;8.05;5.60;;;22.70;32.70;;;;;;4984418;28;20122;-57
2021/01/22 00:15:52;;;;;;;6.38;4.70;;;22.70;32.60;;;;;;4989420;28;20114;-54
2021/01/22 00:18:18;;;;;;;6.07;5.00;;;22.70;32.60;;;;;;4996883;28;20031;-52
2021/01/22 00:20:43;;;;;;;5.95;4.90;;;22.70;32.60;;;;;;5017678;28;20037;-52
2021/01/22 00:23:09;;;;;;;5.60;4.47;;;22.70;32.50;;;;;;5008354;28;20089;-50
2021/01/22 00:25:35;;;;;;;5.85;4.60;;;22.70;32.50;;;;;;4986974;28;20034;-52
2021/01/22 00:28:00;;;;;;;5.93;4.50;;;22.70;32.50;;;;;;4984919;28;20048;-56
2021/01/22 00:30:26;;;;;;;6.10;4.28;;;22.60;32.40;;;;;;4997847;28;20455;-52
2021/01/22 00:32:52;;;;;;;5.72;4.53;;;22.60;32.40;;;;;;4993177;28;20324;-54
2021/01/22 00:35:18;;;;;;;5.45;4.20;;;22.60;32.40;;;;;;5008099;28;20042;-55
2021/01/22 00:37:43;;;;;;;5.60;4.20;;;22.60;32.40;;;;;;4993979;28;20027;-49
2021/01/22 00:40:10;;;;;;;5.07;4.05;;;22.60;32.40;;;;;;4978230;28;20486;-49
2021/01/22 00:42:35;;;;;;;4.90;3.97;;;22.60;32.30;;;;;;4983516;28;20030;-51
2021/01/22 00:45:03;;;;;;;5.50;4.30;;;22.60;32.30;;;;;;4974358;28;20358;-54
2021/01/22 00:47:28;;;;;;;5.07;4.10;;;22.60;32.20;;;;;;4982017;28;20546;-54
2021/01/22 00:49:54;;;;;;;4.18;3.58;;;22.60;32.20;;;;;;4980081;28;20125;-53
2021/01/22 00:52:20;;;;;;;4.70;3.58;;;22.50;32.20;;;;;;5004178;28;20053;-53
2021/01/22 00:54:46;;;;;;;4.70;3.88;;;22.60;32.20;;;;;;4963868;28;20038;-55
2021/01/22 00:57:32;;;;;;;4.47;3.28;;;22.50;32.00;;;;;;4993016;28;20501;-51
2021/01/22 00:59:58;;;;;;;3.95;3.33;;;22.50;32.00;;;;;;4960659;28;20038;-54
2021/01/22 01:02:24;;;;;;;4.38;3.70;;;22.50;32.00;;;;;;4984098;28;20365;-53
2021/01/22 01:04:50;;;;;;;4.95;3.30;;;22.50;31.90;;;;;;4976051;28;20030;-53
2021/01/22 01:07:16;;;;;;;3.97;2.85;;;22.50;31.90;;;;;;4988514;28;20061;-58
2021/01/22 01:09:45;;;;;;;4.20;3.50;;;22.50;31.90;;;;;;4995687;28;20118;-56
2021/01/22 01:12:31;;;;;;;4.65;3.10;;;22.50;31.90;;;;;;4996279;28;20417;-52
2021/01/22 01:15:17;;;;;;;4.30;2.95;;;22.50;31.90;;;;;;4998967;28;20042;-51
2021/01/22 01:17:43;;;;;;;3.65;2.67;;;22.50;31.90;;;;;;4996931;28;20037;-49
2021/01/22 01:20:10;;;;;;;3.53;2.92;;;22.50;31.80;;;;;;4991328;28;20019;-50
2021/01/22 01:22:36;;;;;;;4.22;2.75;;;22.40;31.80;;;;;;4977415;28;20042;-55
2021/01/22 01:25:04;;;;;;;3.60;2.75;;;22.40;31.80;;;;;;4997235;28;20022;-52
2021/01/22 01:27:30;;;;;;;3.65;2.90;;;22.40;31.70;;;;;;4997144;28;20054;-54
2021/01/22 01:29:55;;;;;;;3.47;2.67;;;22.40;31.70;;;;;;4992634;28;20334;-53
2021/01/22 01:32:22;;;;;;;2.83;2.35;;;22.40;31.70;;;;;;4977370;28;20058;-51
2021/01/22 01:34:48;;;;;;;3.70;2.42;;;22.40;31.70;;;;;;4979823;28;20451;-51
2021/01/22 01:37:14;;;;;;;2.95;2.60;;;22.40;31.70;;;;;;4996834;28;20121;-51
2021/01/22 01:39:39;;;;;;;3.30;2.42;;;22.40;31.70;;;;;;4995335;28;20513;-54
2021/01/22 01:42:05;;;;;;;3.10;2.28;;;22.40;31.70;;;;;;5007813;28;20041;-52
2021/01/22 01:44:31;;;;;;;3.83;2.60;;;22.40;31.70;;;;;;5005005;28;20339;-55
2021/01/22 01:46:57;;;;;;;3.13;2.22;;;22.40;31.70;;;;;;4977313;28;20039;-55
2021/01/22 01:49:23;;;;;;;2.78;1.92;;;22.40;31.70;;;;;;4977373;28;20042;-53
2021/01/22 01:51:49;;;;;;;3.33;2.35;;;22.40;31.60;;;;;;4977303;28;20081;-52
2021/01/22 01:54:18;;;;;;;3.65;2.30;;;22.40;31.70;;;;;;4994274;28;20070;-54
2021/01/22 01:56:44;;;;;;;3.53;2.13;;;22.30;31.60;;;;;;4978450;28;20034;-54
2021/01/22 01:59:10;;;;;;;3.53;2.40;;;22.30;31.60;;;;;;4990501;28;20039;-52
2021/01/22 02:01:37;;;;;;;3.20;2.28;;;22.30;31.60;;;;;;4979858;28;20430;-52
2021/01/22 02:04:03;;;;;;;2.53;1.80;;;22.30;31.60;;;;;;4976823;28;20039;-50
2021/01/22 02:06:30;;;;;;;2.55;1.90;;;22.30;31.60;;;;;;4992117;28;20033;-51
2021/01/22 02:08:56;;;;;;;2.03;1.83;;;22.30;31.50;;;;;;4996157;28;20038;-52
2021/01/22 02:11:22;;;;;;;3.50;2.03;;;22.30;31.60;;;;;;4981378;28;20339;-53
2021/01/22 02:13:49;;;;;;;2.63;1.95;;;22.30;31.50;;;;;;4983053;28;20057;-50
2021/01/22 02:16:15;;;;;;;2.33;1.98;;;22.30;31.60;;;;;;4987557;28;20058;-54
2021/01/22 02:18:44;;;;;;;2.08;1.77;;;22.30;31.60;;;;;;5010064;28;20045;-50
2021/01/22 02:21:27;;;;;;;2.55;1.90;;;22.20;31.50;;;;;;5000167;28;20053;-55
2021/01/22 02:24:01;;;;;;;2.28;1.77;;;22.20;31.60;;;;;;4996061;28;20879;-52
2021/01/22 02:26:29;;;;;;;2.45;1.67;;;22.20;31.60;;;;;;4984593;28;20422;-51
2021/01/22 02:29:06;;;;;;;2.47;1.77;;;22.20;31.60;;;;;;4991771;28;20027;-52
2021/01/22 02:31:35;;;;;;;1.83;1.45;;;22.20;31.50;;;;;;4975981;28;20061;-55
2021/01/22 02:34:09;;;;;;;1.75;1.50;;;22.20;31.50;;;;;;4965635;28;20350;-56
2021/01/22 02:36:39;;;;;;;2.67;1.63;;;22.20;31.50;;;;;;4994038;28;20184;-54
2021/01/22 02:39:08;;;;;;;1.90;1.33;;;22.20;31.50;;;;;;4991388;28;20042;-56
2021/01/22 02:41:37;;;;;;;1.98;1.40;;;22.20;31.50;;;;;;4976014;28;20058;-55
2021/01/22 02:44:04;;;;;;;2.20;1.40;;;22.10;31.50;;;;;;4979152;28;20031;-55
2021/01/22 02:46:32;;;;;;;2.10;1.38;;;22.10;31.50;;;;;;4984317;28;20026;-56
2021/01/22 02:48:58;;;;;;;2.22;1.33;;;22.10;31.50;;;;;;4986722;28;20069;-50
2021/01/22 02:51:24;;;;;;;1.77;1.30;;;22.10;31.50;;;;;;4995547;28;20064;-55
2021/01/22 02:53:50;;;;;;;1.58;1.30;;;22.10;31.50;;;;;;4994432;28;20072;-58
2021/01/22 02:56:42;;;;;;;2.50;1.58;;;22.10;32.10;;;;;;4983370;28;20397;-52
2021/01/22 02:59:58;;;;;;;2.10;1.33;;;22.10;31.50;;;;;;4993545;28;20034;-52
2021/01/22 03:02:30;;;;;;;2.10;1.40;;;22.10;31.50;;;;;;4992632;28;20457;-57
2021/01/22 03:04:55;;;;;;;2.70;1.38;;;22.10;31.50;;;;;;5002864;28;20031;-53
2021/01/22 03:07:37;;;;;;;1.75;1.27;;;22.10;31.50;;;;;;4977505;28;20199;-50
2021/01/22 03:10:05;;;;;;;2.38;1.48;;;22.00;31.40;;;;;;4983916;28;20480;-51
2021/01/22 03:12:33;;;;;;;2.25;1.23;;;22.00;31.40;;;;;;4994716;28;20034;-52
2021/01/22 03:14:59;;;;;;;1.88;1.27;;;22.00;31.40;;;;;;4987319;28;20105;-54
2021/01/22 03:17:25;;;;;;;2.53;1.50;;;22.00;31.40;;;;;;4992941;28;20045;-57
2021/01/22 03:19:51;;;;;;;1.90;1.10;;;22.00;31.40;;;;;;5006330;28;20323;-51
2021/01/22 03:22:17;;;;;;;1.58;1.20;;;22.00;31.40;;;;;;5008153;28;20052;-56
2021/01/22 03:24:43;;;;;;;1.77;1.30;;;22.00;31.40;;;;;;5008945;28;20042;-55
2021/01/22 03:27:09;;;;;;;1.98;1.20;;;22.00;31.40;;;;;;4979343;28;20093;-52
2021/01/22 03:29:36;;;;;;;1.77;1.02;;;22.00;31.40;;;;;;4978241;28;20323;-52
2021/01/22 03:32:04;;;;;;;2.75;1.58;;;22.00;31.40;;;;;;4994661;28;20054;-54
2021/01/22 03:34:30;;;;;;;1.48;1.10;;;22.00;31.40;;;;;;4992836;28;20042;-54
2021/01/22 03:36:57;;;;;;;1.50;1.13;;;22.00;31.40;;;;;;5000403;28;20038;-49
2021/01/22 03:39:24;;;;;;;1.45;1.10;;;22.00;31.40;;;;;;4997213;28;20026;-52
2021/01/22 03:41:51;;;;;;;1.30;0.90;;;22.00;31.40;;;;;;4975092;28;20046;-55
2021/01/22 03:44:18;;;;;;;1.10;0.80;;;21.90;31.30;;;;;;4975259;28;20035;-56
2021/01/22 03:46:44;;;;;;;1.00;0.90;;;21.90;31.30;;;;;;4985410;28;20057;-52
2021/01/22 03:49:11;;;;;;;1.30;1.20;;;21.90;31.30;;;;;;4993582;28;20041;-54
2021/01/22 03:51:37;;;;;;;1.45;0.90;;;21.90;31.30;;;;;;4994235;28;20389;-52
2021/01/22 03:54:04;;;;;;;1.33;0.90;;;21.90;31.40;;;;;;4993232;28;20034;-49
2021/01/22 03:56:31;;;;;;;1.20;0.80;;;21.90;31.50;;;;;;4990774;28;20026;-53
2021/01/22 03:58:56;;;;;;;2.10;1.30;;;21.90;31.40;;;;;;4998131;28;20322;-52
2021/01/22 04:01:23;;;;;;;1.05;0.80;;;21.90;31.40;;;;;;4978845;28;20039;-51
2021/01/22 04:03:49;;;;;;;1.50;0.90;;;21.90;31.40;;;;;;4979125;28;20035;-50
2021/01/22 04:06:15;;;;;;;1.30;0.90;;;21.90;31.40;;;;;;4985063;28;20474;-55
2021/01/22 04:08:42;;;;;;;0.77;0.73;;;21.90;31.30;;;;;;4980919;28;20423;-52
2021/01/22 04:11:08;;;;;;;1.20;0.75;;;21.80;31.30;;;;;;4982522;28;20357;-52
2021/01/22 04:13:34;;;;;;;0.95;0.73;;;21.80;31.20;;;;;;5000390;28;20045;-50
2021/01/22 04:16:01;;;;;;;1.13;0.63;;;21.80;31.30;;;;;;5000887;28;20084;-54
2021/01/22 04:18:27;;;;;;;1.95;1.20;;;21.80;31.30;;;;;;4998489;28;20107;-55
2021/01/22 04:20:53;;;;;;;1.48;0.75;;;21.80;31.20;;;;;;4984150;28;20458;-54
2021/01/22 04:23:19;;;;;;;1.10;0.68;;;21.80;31.20;;;;;;4978846;28;20047;-53
2021/01/22 04:25:46;;;;;;;0.93;0.70;;;21.80;31.20;;;;;;4996083;28;20049;-48
2021/01/22 04:28:12;;;;;;;0.90;0.60;;;21.80;31.20;;;;;;4998232;28;20026;-53
2021/01/22 04:30:38;;;;;;;1.10;0.77;;;21.80;31.20;;;;;;4989508;28;20166;-51
2021/01/22 04:33:04;;;;;;;1.15;0.80;;;21.80;31.20;;;;;;4997840;28;20121;-52
2021/01/22 04:35:30;;;;;;;0.88;0.80;;;21.70;31.20;;;;;;4988862;28;20423;-55
2021/01/22 04:37:56;;;;;;;1.13;0.70;;;21.70;31.20;;;;;;4978193;28;20045;-53
2021/01/22 04:40:24;;;;;;;1.13;0.60;;;21.70;31.20;;;;;;4978624;28;20065;-58
2021/01/22 04:42:50;;;;;;;1.20;0.68;;;21.70;31.20;;;;;;4979199;28;20031;-55
2021/01/22 04:45:15;;;;;;;1.02;0.60;;;21.70;31.20;;;;;;5000973;28;20029;-54
2021/01/22 04:47:42;;;;;;;1.02;0.52;;;21.70;31.20;;;;;;5017570;28;20033;-55
2021/01/22 04:50:10;;;;;;;1.00;0.70;;;21.70;31.20;;;;;;5005338;28;20433;-52
2021/01/22 04:52:36;;;;;;;1.08;0.60;;;21.70;31.20;;;;;;4997825;28;20038;-54
2021/01/22 04:55:06;;;;;;;1.20;0.63;;;21.70;31.20;;;;;;4988365;28;20034;-53
2021/01/22 04:57:36;;;;;;;1.40;0.70;;;21.70;31.20;;;;;;4978138;28;20101;-51
2021/01/22 05:00:03;;;;;;;0.95;0.60;;;21.70;31.20;;;;;;4991137;28;20052;-55
2021/01/22 05:02:29;;;;;;;1.00;0.70;;;21.70;31.20;;;;;;5015217;28;20033;-56
2021/01/22 05:04:56;;;;;;;0.80;0.60;;;21.60;31.20;;;;;;4999944;28;20034;-59
2021/01/22 05:07:22;;;;;;;1.58;0.60;;;21.70;31.20;;;;;;4961132;28;20430;-57
2021/01/22 05:09:49;;;;;;;0.70;0.55;;;21.70;31.20;;;;;;4978266;28;20022;-60
2021/01/22 05:12:14;;;;;;;1.13;0.70;;;21.70;31.90;;;;;;4977635;28;20035;-56
2021/01/22 05:14:40;;;;;;;0.82;0.60;;;21.70;31.20;;;;;;4982394;28;20026;-50
2021/01/22 05:17:08;;;;;;;1.02;0.70;;;21.60;31.20;;;;;;5007888;28;20441;-57
2021/01/22 05:19:36;;;;;;;1.13;0.75;;;21.60;31.10;;;;;;5005892;28;20045;-50
2021/01/22 05:22:02;;;;;;;0.82;0.63;;;21.60;31.20;;;;;;4977695;28;20053;-54
2021/01/22 05:24:29;;;;;;;0.73;0.63;;;21.60;31.10;;;;;;4983807;28;20042;-56
2021/01/22 05:27:02;;;;;;;0.70;0.50;;;21.60;31.20;;;;;;4999326;28;20030;-58
2021/01/22 05:29:29;;;;;;;0.63;0.52;;;21.60;31.10;;;;;;5011735;28;20049;-52
2021/01/22 05:31:55;;;;;;;0.65;0.50;;;21.60;31.20;;;;;;4996675;28;20046;-52
2021/01/22 05:34:21;;;;;;;1.27;0.60;;;21.60;31.20;;;;;;4995995;28;20050;-55
2021/01/22 05:36:50;;;;;;;1.80;0.80;;;21.50;31.10;;;;;;4979149;28;20053;-56
2021/01/22 05:39:21;;;;;;;0.93;0.45;;;21.50;31.10;;;;;;4992172;28;20116;-51
2021/01/22 05:41:51;;;;;;;0.93;0.63;;;21.50;31.20;;;;;;4977457;28;20043;-55
2021/01/22 05:44:22;;;;;;;1.67;0.70;;;21.50;31.20;;;;;;4990595;28;20034;-52
2021/01/22 05:47:04;;;;;;;1.15;0.70;;;21.50;31.20;;;;;;4982937;28;20485;-52
2021/01/22 05:49:30;;;;;;;0.95;0.70;;;21.50;31.20;;;;;;4998942;28;20062;-50
2021/01/22 05:51:56;;;;;;;1.20;0.70;;;21.50;31.30;;;;;;4979399;28;20457;-55
2021/01/22 05:54:33;;;;;;;1.00;0.60;;;21.50;31.30;;;;;;4990936;28;20042;-56
2021/01/22 05:56:59;;;;;;;1.65;0.73;;;21.50;32.00;;;;;;4976990;28;20369;-57
2021/01/22 05:59:25;;;;;;;1.80;0.82;;;21.40;31.30;;;;;;5006178;28;20038;-56
2021/01/22 06:01:50;;;;;;;2.30;1.08;;;21.50;31.30;;;;;;5015586;28;20141;-49
2021/01/22 06:04:16;;;;;;;1.70;0.73;;;21.50;31.30;;;;;;5007517;28;20105;-51
2021/01/22 06:06:42;;;;;;;1.48;0.77;;;21.50;31.30;;;;;;4976933;28;20035;-53
2021/01/22 06:09:08;;;;;;;1.33;0.60;;;21.50;31.30;;;;;;5000188;28;20101;-54
2021/01/22 06:11:34;;;;;;;1.23;0.60;;;21.40;31.30;;;;;;4996010;28;20105;-56
2021/01/22 06:14:04;;;;;;;1.38;0.70;;;21.40;31.30;;;;;;4989704;28;20034;-54
2021/01/22 06:16:30;;;;;;;1.23;0.80;;;21.40;31.30;;;;;;4995273;28;20030;-51
2021/01/22 06:19:00;;;;;;;1.42;0.80;;;21.40;31.30;;;;;;4995960;28;20022;-55
2021/01/22 06:21:33;;;;;;;1.88;1.00;;;21.40;31.30;;;;;;4976280;28;20057;-53
2021/01/22 06:24:04;;;;;;;1.70;0.70;;;21.40;31.30;;;;;;4998063;28;20085;-53
2021/01/22 06:26:31;;;;;;;2.22;0.80;;;21.40;31.40;;;;;;4996267;28;20037;-52
2021/01/22 06:29:01;;;;;;;1.30;0.80;;;21.40;31.40;;;;;;5001348;28;20053;-52
2021/01/22 06:31:28;;;;;;;1.30;0.65;;;21.40;31.40;;;;;;4995552;28;20065;-56
2021/01/22 06:33:58;;;;;;;1.45;0.73;;;21.40;31.40;;;;;;4995907;28;20035;-50
2021/01/22 06:36:24;;;;;;;1.02;0.88;;;21.40;31.40;;;;;;4994532;28;20031;-52
2021/01/22 06:38:51;;;;;;;1.67;0.90;;;21.40;31.40;;;;;;4982668;28;20457;-53
2021/01/22 06:41:22;;;;;;;1.00;0.75;;;21.40;31.40;;;;;;4999241;28;20042;-52
2021/01/22 06:43:50;;;;;;;1.05;0.80;;;21.40;31.40;;;;;;4976469;28;20191;-55
2021/01/22 06:46:18;;;;;;;1.67;1.00;;;21.40;31.40;;;;;;4996752;28;20060;-48
2021/01/22 06:49:04;;;;;;;2.17;1.00;;;21.30;31.40;;;;;;4996591;28;20034;-51
2021/01/22 06:51:35;;;;;;;1.73;0.93;;;21.40;31.40;;;;;;4995406;28;20030;-57
2021/01/22 06:54:07;;;;;;;1.50;0.82;;;21.30;31.40;;;;;;4993212;28;20091;-53
2021/01/22 06:56:37;;;;;;;1.23;0.90;;;21.30;31.40;;;;;;4984457;28;20030;-54
2021/01/22 06:59:19;;;;;;;1.13;0.80;;;21.30;31.40;;;;;;4995538;28;20034;-49
2021/01/22 07:01:45;;;;;;;1.83;1.02;;;21.30;31.40;;;;;;4995582;28;20062;-55
2021/01/22 07:04:29;;;;;;;0.80;0.73;;;21.30;31.40;;;;;;4994137;28;20050;-52
2021/01/22 07:06:56;;;;;;;1.53;0.90;;;21.30;31.40;;;;;;4981718;28;20117;-53
2021/01/22 07:09:43;;;;;;;2.67;1.05;;;21.30;31.40;;;;;;4976351;28;20678;-53
2021/01/22 07:12:13;;;;;;;2.42;1.00;;;21.30;31.40;;;;;;4997713;28;20084;-55
2021/01/22 07:14:45;;;;;;;1.98;1.05;;;21.20;31.40;;;;;;5013794;28;20144;-56
2021/01/22 07:17:18;;;;;;;1.55;0.90;;;21.30;31.50;;;;;;5009575;28;20072;-55
2021/01/22 07:20:00;;;;;;;3.47;1.27;;;21.20;31.50;;;;;;5001557;28;20041;-52
2021/01/22 07:22:30;;;;;;;1.50;1.00;;;21.20;31.50;;;;;;4992247;28;20436;-50
2021/01/22 07:24:58;;;;;;;1.73;0.95;;;21.20;31.60;;;;;;5003308;28;20030;-50
2021/01/22 07:27:41;;;;;;;1.92;1.13;;;21.20;31.60;;;;;;4991838;28;20057;-54
2021/01/22 07:30:15;;;;;;;2.03;1.00;;;21.20;31.70;;;;;;4991230;28;20031;-55
2021/01/22 07:32:43;;;;;;;1.58;1.10;;;21.20;31.70;;;;;;4947724;29;20048;-53
2021/01/22 07:35:23;;;;;;;2.42;1.23;;;21.20;31.70;;;;;;4941202;29;20117;-52
2021/01/22 07:37:50;;;;;;;2.35;0.93;;;21.20;31.70;;;;;;4952938;28;20141;-54
2021/01/22 07:40:16;;;;;;;1.92;1.05;;;21.20;31.80;;;;;;4955719;28;20038;-57
2021/01/22 07:42:43;;;;;;;2.75;1.10;;;21.20;31.80;;;;;;4951632;29;20110;-57
2021/01/22 07:45:18;;;;;;;3.03;1.10;;;21.20;31.90;;;;;;4953385;28;20035;-58
2021/01/22 07:47:47;;;;;;;3.03;1.40;;;21.20;32.30;;;;;;4954530;29;20031;-57
2021/01/22 07:50:15;;;;;;;5.00;1.58;;;21.10;32.00;;;;;;4968286;28;20150;-53
2021/01/22 07:52:42;;;;;;;3.70;1.70;;;21.10;32.00;;;;;;4945687;28;20023;-53
2021/01/22 07:55:22;;;;;;;3.03;1.27;;;21.20;32.00;;;;;;4956268;29;20048;-52
2021/01/22 07:58:02;;;;;;;4.57;1.40;;;21.10;32.00;;;;;;4952446;29;20063;-59
2021/01/22 08:00:45;;;;;;;5.00;1.90;;;21.20;32.20;;;;;;4951862;29;20035;-60
2021/01/22 08:03:13;;;;;;;3.60;1.80;;;21.10;32.70;;;;;;4949452;28;20051;-56
2021/01/22 08:05:41;;;;;;;5.45;2.90;;;21.20;33.20;;;;;;4951506;29;20035;-56
2021/01/22 08:08:19;;;;;;;6.53;3.97;;;21.20;33.50;;;;;;4955909;28;20027;-62
2021/01/22 08:10:45;;;;;;;7.20;3.38;;;21.30;33.60;;;;;;4953021;29;20074;-60
2021/01/22 08:13:11;;;;;;;6.68;4.25;;;21.40;33.70;;;;;;4950820;28;20035;-57
2021/01/22 08:15:37;;;;;;;7.07;4.25;;;21.50;33.70;;;;;;4955321;28;20035;-58
2021/01/22 08:18:06;;;;;;;8.63;4.65;;;21.50;33.60;;;;;;4961924;28;20038;-59
2021/01/22 08:20:33;;;;;;;8.15;5.00;;;21.60;33.50;;;;;;4954999;28;20027;-54
2021/01/22 08:22:59;;;;;;;10.43;5.68;;;21.70;33.50;;;;;;4953357;28;20102;-55
2021/01/22 08:25:35;;;;;;;12.27;6.28;;;21.80;33.50;;;;;;4951504;28;20123;-62
2021/01/22 08:28:02;;;;;;;10.73;7.15;;;21.90;33.60;;;;;;4951272;29;20366;-58
2021/01/22 08:30:29;;;;;;;11.32;7.72;;;22.00;33.60;;;;;;4952922;28;20086;-56
2021/01/22 08:32:57;;;;;;;15.48;8.52;;;22.10;34.20;;;;;;4987281;28;20069;-56
2021/01/22 08:35:27;;;;;;;14.77;8.25;;;22.20;33.60;;;;;;4989834;28;20019;-59
2021/01/22 08:37:55;;;;;;;11.60;7.65;;;22.30;33.60;;;;;;4985745;28;20136;-56
2021/01/22 08:40:22;;;;;;;11.60;8.50;;;22.40;33.40;;;;;;4979599;28;20110;-53
2021/01/22 08:43:09;;;;;;;11.40;8.68;;;22.50;33.30;;;;;;5004150;28;20129;-56
2021/01/22 08:45:36;;;;;;;18.33;10.30;;;22.60;33.30;;;;;;5007830;28;20057;-55
2021/01/22 08:48:03;;;;;;;13.00;10.38;;;22.80;33.40;;;;;;4997657;28;20031;-57
2021/01/22 08:50:30;;;;;;;14.90;11.13;;;22.90;33.30;;;;;;5000957;28;20567;-54
2021/01/22 08:53:10;;;;;;;16.00;11.50;;;23.00;33.20;;;;;;5008263;28;20038;-57
2021/01/22 08:55:36;;;;;;;14.55;10.65;;;23.10;33.20;;;;;;5006482;28;20034;-52
2021/01/22 08:58:05;;;;;;;16.00;11.48;;;23.20;33.00;;;;;;5017197;28;20026;-55
2021/01/22 09:00:31;;;;;;;17.13;13.00;;;23.30;32.80;;;;;;4993755;28;20042;-58
2021/01/22 09:02:57;;;;;;;17.60;13.52;;;23.40;32.70;;;;;;4987944;28;20334;-51
2021/01/22 09:05:23;;;;;;;16.42;12.88;;;23.40;32.60;;;;;;4996443;28;20103;-56
2021/01/22 09:08:10;;;;;;;18.77;14.35;;;23.50;32.50;;;;;;4973724;28;20038;-54
2021/01/22 09:10:41;;;;;;;15.18;11.55;;;23.60;32.30;;;;;;4997761;28;20025;-56
2021/01/22 09:13:13;;;;;;;15.02;10.68;;;23.70;32.10;;;;;;4990686;28;20058;-53
2021/01/22 09:15:40;;;;;;;13.98;10.02;;;23.80;31.90;;;;;;4986087;28;20023;-54
2021/01/22 09:18:15;;;;;;;13.95;8.82;;;23.80;31.80;;;;;;4994554;28;20034;-54
2021/01/22 09:20:44;;;;;;;11.40;8.27;;;23.90;31.60;;;;;;4993405;28;20488;-55
2021/01/22 09:23:11;;;;;;;10.75;8.35;;;23.90;31.50;;;;;;4994181;28;20446;-55
2021/01/22 09:25:37;;;;;;;13.95;9.48;;;23.90;31.40;;;;;;4977541;28;20037;-52
2021/01/22 09:28:03;;;;;;;12.10;9.25;;;24.00;31.40;;;;;;4993593;28;20098;-54
2021/01/22 09:30:29;;;;;;;13.02;10.93;;;24.00;31.30;;;;;;4994239;28;20477;-51
2021/01/22 09:32:56;;;;;;;14.65;11.63;;;24.10;31.30;;;;;;4994826;28;20026;-51
2021/01/22 09:35:25;;;;;;;14.63;11.45;;;24.10;31.40;;;;;;4994948;28;20125;-51
2021/01/22 09:37:52;;;;;;;13.77;11.57;;;24.10;31.30;;;;;;4994516;28;20438;-49
2021/01/22 09:40:19;;;;;;;19.23;13.00;;;24.10;31.40;;;;;;4992295;28;20026;-57
2021/01/22 09:42:44;;;;;;;16.13;12.80;;;24.20;31.40;;;;;;4997316;28;20047;-59
2021/01/22 09:45:12;;;;;;;18.83;14.68;;;24.20;31.50;;;;;;5006751;28;20034;-57
2021/01/22 09:47:38;;;;;;;16.48;13.70;;;24.20;31.60;;;;;;5013139;28;20033;-50
2021/01/22 09:50:07;;;;;;;17.48;14.32;;;24.30;31.70;;;;;;5010981;28;20137;-49
2021/01/22 09:52:38;;;;;;;20.30;16.90;;;24.30;31.70;;;;;;5013529;28;20500;-52
2021/01/22 09:55:24;;;;;;;21.35;15.48;;;24.30;31.80;;;;;;5016173;28;20038;-56
2021/01/22 09:57:51;;;;;;;17.45;15.23;;;24.30;31.80;;;;;;4979343;28;20118;-49
2021/01/22 10:00:17;;;;;;;17.65;14.57;;;24.30;31.90;;;;;;4997888;28;20084;-49
2021/01/22 10:02:44;;;;;;;19.27;15.93;;;24.30;31.90;;;;;;4990909;28;20031;-49
2021/01/22 10:05:10;;;;;;;16.10;14.40;;;24.30;31.80;;;;;;4985193;28;20086;-50
2021/01/22 10:07:36;;;;;;;19.48;15.48;;;24.30;31.80;;;;;;4996215;28;20030;-50
2021/01/22 10:10:04;;;;;;;18.35;14.48;;;24.30;31.70;;;;;;4993674;28;20028;-56
2021/01/22 10:12:30;;;;;;;18.70;14.63;;;24.30;31.60;;;;;;4993524;28;20026;-54
2021/01/22 10:14:55;;;;;;;15.80;13.60;;;24.30;31.70;;;;;;4986171;28;20098;-54
2021/01/22 10:17:21;;;;;;;17.27;13.45;;;24.30;31.50;;;;;;4997476;28;20069;-51
2021/01/22 10:19:47;;;;;;;15.85;14.25;;;24.30;31.50;;;;;;4995663;28;20445;-49
2021/01/22 10:22:13;;;;;;;16.65;14.43;;;24.30;31.40;;;;;;4995196;28;20377;-49
2021/01/22 10:24:38;;;;;;;16.13;13.48;;;24.30;31.40;;;;;;4994705;28;20030;-53
2021/01/22 10:27:04;;;;;;;18.50;14.30;;;24.30;31.40;;;;;;4994507;28;20035;-53
2021/01/22 10:29:30;;;;;;;16.83;14.88;;;24.30;31.30;;;;;;4994615;28;20026;-51
2021/01/22 10:31:56;;;;;;;16.08;14.00;;;24.30;31.30;;;;;;4993614;28;20141;-53
2021/01/22 10:34:21;;;;;;;14.60;12.77;;;24.30;31.30;;;;;;4994188;28;20438;-54
2021/01/22 10:36:47;;;;;;;14.07;12.10;;;24.30;31.10;;;;;;4996679;28;20112;-50
2021/01/22 10:39:13;;;;;;;15.68;13.90;;;24.20;30.90;;;;;;4993763;28;20049;-46
2021/01/22 10:41:39;;;;;;;18.98;15.68;;;24.20;31.00;;;;;;4995454;28;20070;-60
2021/01/22 10:44:05;;;;;;;18.10;14.35;;;24.30;31.10;;;;;;4994588;28;20112;-46
2021/01/22 10:46:31;;;;;;;16.83;14.90;;;24.20;31.00;;;;;;4994167;28;20030;-53
2021/01/22 10:48:58;;;;;;;16.27;14.02;;;24.20;31.10;;;;;;4993857;28;20096;-46
2021/01/22 10:51:24;;;;;;;16.10;14.38;;;24.20;31.10;;;;;;4994296;28;20119;-55
2021/01/22 10:53:50;;;;;;;14.82;12.75;;;24.20;31.00;;;;;;4993975;28;20130;-50
2021/01/22 10:56:15;;;;;;;13.23;11.60;;;24.20;31.00;;;;;;4993915;28;20066;-57
2021/01/22 10:58:42;;;;;;;15.35;13.32;;;24.20;31.00;;;;;;4993570;28;20030;-49
2021/01/22 11:01:07;;;;;;;14.02;11.80;;;24.20;31.00;;;;;;4994262;28;20065;-49
2021/01/22 11:03:33;;;;;;;14.57;12.30;;;24.20;31.00;;;;;;4993192;28;20058;-45
2021/01/22 11:05:59;;;;;;;12.57;11.25;;;24.20;31.00;;;;;;4995786;28;20026;-52
2021/01/22 11:08:25;;;;;;;13.18;11.43;;;24.20;31.00;;;;;;4994212;28;20422;-50
2021/01/22 11:10:51;;;;;;;13.98;11.63;;;24.20;31.00;;;;;;5000846;28;20038;-49
2021/01/22 11:13:17;;;;;;;13.00;11.60;;;24.10;31.10;;;;;;4996977;28;20038;-52
2021/01/22 11:15:43;;;;;;;14.10;12.15;;;24.20;31.30;;;;;;5004580;28;20925;-51
2021/01/22 11:18:10;;;;;;;15.88;13.13;;;24.20;31.50;;;;;;4994444;28;20113;-47
2021/01/22 11:20:36;;;;;;;14.18;12.68;;;24.10;31.70;;;;;;5004426;28;20018;-50
2021/01/22 11:23:03;;;;;;;14.65;13.07;;;24.20;32.00;;;;;;4994165;28;20027;-53
2021/01/22 11:25:29;;;;;;;13.82;12.35;;;24.10;32.10;;;;;;4996848;28;20415;-57
2021/01/22 11:27:55;;;;;;;16.20;13.18;;;24.10;32.30;;;;;;4992634;28;20061;-53
2021/01/22 11:30:21;;;;;;;14.05;12.55;;;24.20;32.40;;;;;;4993380;28;20089;-58
2021/01/22 11:32:47;;;;;;;15.50;13.43;;;24.20;32.50;;;;;;4991687;28;20477;-54
2021/01/22 11:35:13;;;;;;;15.40;12.85;;;24.10;32.60;;;;;;4993626;28;20046;-48
2021/01/22 11:37:44;;;;;;;14.63;13.13;;;24.20;32.80;;;;;;4997353;28;21839;-51
2021/01/22 11:40:10;;;;;;;17.75;14.32;;;24.20;32.90;;;;;;4994190;28;20034;-52
2021/01/22 11:42:37;;;;;;;16.80;14.68;;;24.20;33.00;;;;;;4990289;28;20046;-52
2021/01/22 11:45:04;;;;;;;17.33;14.45;;;24.20;33.10;;;;;;4990872;28;20030;-52
2021/01/22 11:47:30;;;;;;;16.38;14.23;;;24.20;33.10;;;;;;4991469;28;20030;-50
2021/01/22 11:49:56;;;;;;;18.63;14.63;;;24.20;33.10;;;;;;4994621;28;20034;-57
2021/01/22 11:52:22;;;;;;;16.33;14.18;;;24.20;33.10;;;;;;4994104;28;20034;-53
2021/01/22 11:54:48;;;;;;;16.98;14.30;;;24.20;33.10;;;;;;4994219;28;20104;-49
2021/01/22 11:57:14;;;;;;;17.40;14.07;;;24.20;33.20;;;;;;4993644;28;20042;-55
2021/01/22 11:59:39;;;;;;;17.33;14.98;;;24.20;33.20;;;;;;4992791;28;20026;-52
2021/01/22 12:02:06;;;;;;;17.38;14.88;;;24.20;33.10;;;;;;4993448;28;20046;-48
2021/01/22 12:04:31;;;;;;;17.88;14.32;;;24.20;33.10;;;;;;4993040;28;20442;-53
2021/01/22 12:06:57;;;;;;;17.08;14.45;;;24.20;33.10;;;;;;4991719;28;20019;-53
2021/01/22 12:09:23;;;;;;;21.35;16.80;;;24.20;33.10;;;;;;4993504;28;20027;-54
2021/01/22 12:11:49;;;;;;;19.60;16.58;;;24.20;33.30;;;;;;4983548;28;20401;-57
2021/01/22 12:14:14;;;;;;;18.90;16.35;;;24.20;33.40;;;;;;4993965;28;20476;-52
2021/01/22 12:16:40;;;;;;;18.17;14.88;;;24.20;33.40;;;;;;4996784;28;20338;-55
2021/01/22 12:19:06;;;;;;;18.88;16.38;;;24.30;33.40;;;;;;4992601;28;20022;-56
2021/01/22 12:21:32;;;;;;;17.60;15.73;;;24.20;33.40;;;;;;4996512;28;20042;-55
2021/01/22 12:23:58;;;;;;;19.83;17.08;;;24.30;33.30;;;;;;4994705;28;20036;-53
2021/01/22 12:26:24;;;;;;;19.63;16.65;;;24.30;33.40;;;;;;4997744;28;20069;-55
2021/01/22 12:28:50;;;;;;;19.77;16.75;;;24.20;33.40;;;;;;4997253;28;20742;-61
2021/01/22 12:31:16;;;;;;;21.52;18.92;;;24.30;33.60;;;;;;4996157;28;20120;-53
2021/01/22 12:33:42;;;;;;;18.30;14.82;;;24.30;33.60;;;;;;4997029;28;20449;-58
2021/01/22 12:36:09;;;;;;;17.85;14.40;;;24.20;33.50;;;;;;4997113;28;20057;-50
2021/01/22 12:38:35;;;;;;;16.40;14.00;;;24.20;33.30;;;;;;4992969;28;20038;-54
2021/01/22 12:41:02;;;;;;;16.83;13.50;;;24.30;33.40;;;;;;4997357;28;20072;-54
2021/01/22 12:43:28;;;;;;;17.75;13.55;;;24.30;33.60;;;;;;4996721;28;20034;-54
2021/01/22 12:45:54;;;;;;;15.65;13.77;;;24.30;33.80;;;;;;4996104;28;20033;-52